Time;durP1;ratioP1;P1;durP2;ratioP2;P2;SDS_P1;SDS_P2;PMS_P1;PMS_P2;Temp;Humidity;BMP_temperature;BMP_pressure;BME280_temperature;BME280_humidity;BME280_pressure;Samples;Min_cycle;Max_cycle;Signal;HPM_P1;HPM_P2
2022/03/25 00:00:27;;;;;;;24.10;10.03;;;;;;;-143.84;30.62;45037.66;5029634;28;20543;-68
2022/03/25 00:02:54;;;;;;;15.83;9.10;;;;;;;-143.84;30.27;45045.25;5029619;28;20445;-68
2022/03/25 00:05:21;;;;;;;23.47;10.53;;;;;;;-143.84;30.44;45049.06;5029564;28;20448;-68
2022/03/25 00:07:49;;;;;;;15.53;9.30;;;;;;;-143.84;30.33;45062.41;5029427;28;20449;-68
2022/03/25 00:10:16;;;;;;;24.83;9.47;;;;;;;-143.84;30.38;45060.50;5029397;28;20448;-68
2022/03/25 00:12:44;;;;;;;24.03;9.97;;;;;;;-143.84;30.36;45043.34;5029540;28;20449;-68
2022/03/25 00:15:12;;;;;;;18.30;8.40;;;;;;;-143.84;30.61;45052.88;5029848;28;20461;-68
2022/03/25 00:17:39;;;;;;;15.37;9.50;;;;;;;-143.84;30.09;45066.22;5029264;28;20440;-68
2022/03/25 00:20:08;;;;;;;17.57;10.97;;;;;;;-143.84;30.52;45054.78;5029931;28;20476;-68
2022/03/25 00:22:35;;;;;;;19.20;10.57;;;;;;;-143.84;30.75;45058.59;5029455;28;20506;-68
2022/03/25 00:25:04;;;;;;;27.03;10.30;;;;;;;-143.84;30.49;45064.31;5029470;28;20953;-68
2022/03/25 00:27:32;;;;;;;16.50;10.10;;;;;;;-143.84;30.59;45039.53;5029331;28;20487;-68
2022/03/25 00:30:01;;;;;;;17.73;10.17;;;;;;;-143.84;30.36;45070.00;5029445;28;20514;-68
2022/03/25 00:32:28;;;;;;;15.03;10.83;;;;;;;-143.84;30.47;45056.69;5029499;28;20440;-68
2022/03/25 00:34:55;;;;;;;21.47;9.67;;;;;;;-143.84;30.78;45049.06;5029359;28;20447;-68
2022/03/25 00:37:23;;;;;;;12.77;9.57;;;;;;;-143.84;30.98;45037.66;5029371;28;20452;-68
2022/03/25 00:39:51;;;;;;;15.53;10.03;;;;;;;-143.84;31.02;45064.31;5029392;28;20483;-68
2022/03/25 00:42:18;;;;;;;23.03;12.67;;;;;;;-143.84;31.14;45056.69;5028878;28;20499;-68
2022/03/25 00:44:45;;;;;;;20.50;10.70;;;;;;;-143.84;30.78;45045.25;5029278;28;20449;-68
2022/03/25 00:47:14;;;;;;;16.47;9.73;;;;;;;-143.84;31.07;45041.44;5031464;28;20451;-68
2022/03/25 00:49:42;;;;;;;17.30;10.40;;;;;;;-143.84;30.61;45064.31;5033488;28;20454;-68
2022/03/25 00:52:09;;;;;;;14.13;10.40;;;;;;;-143.84;30.44;45049.06;5033043;28;20485;-68
2022/03/25 00:54:37;;;;;;;21.50;10.27;;;;;;;-143.84;30.65;45049.06;5033014;28;20914;-68
2022/03/25 00:57:05;;;;;;;15.23;9.67;;;;;;;-143.84;31.00;45050.97;5032270;28;20489;-68
2022/03/25 00:59:32;;;;;;;12.77;9.90;;;;;;;-143.84;30.49;45039.53;5032594;28;20936;-68
2022/03/25 01:02:00;;;;;;;15.50;10.13;;;;;;;-143.84;30.56;45037.66;5032604;28;20442;-68
2022/03/25 01:04:29;;;;;;;15.60;10.13;;;;;;;-143.84;30.72;45077.63;5032855;28;20447;-68
2022/03/25 01:06:56;;;;;;;17.03;9.30;;;;;;;-143.84;30.85;45070.00;5032575;28;20450;-68
2022/03/25 01:09:24;;;;;;;17.07;11.50;;;;;;;-143.84;30.78;45033.84;5032530;28;20549;-68
2022/03/25 01:11:51;;;;;;;33.73;10.17;;;;;;;-143.84;30.28;45035.75;5032356;28;20444;-68
2022/03/25 01:14:19;;;;;;;14.93;9.50;;;;;;;-143.84;30.52;45056.69;5032199;28;20461;-68
2022/03/25 01:16:46;;;;;;;17.37;9.40;;;;;;;-143.84;30.33;45043.34;5032696;28;20448;-68
2022/03/25 01:19:13;;;;;;;15.80;9.53;;;;;;;-143.84;30.50;45049.06;5032273;28;20439;-68
2022/03/25 01:21:42;;;;;;;19.93;10.00;;;;;;;-143.84;30.56;45064.31;5032551;28;20433;-68
2022/03/25 01:24:09;;;;;;;14.67;8.57;;;;;;;-143.84;30.56;45050.97;5032264;28;20469;-68
2022/03/25 01:26:36;;;;;;;15.37;9.47;;;;;;;-143.84;31.06;45068.13;5032229;28;20811;-68
2022/03/25 01:29:04;;;;;;;14.70;10.20;;;;;;;-143.84;30.52;45064.31;5031920;28;20438;-68
2022/03/25 01:31:32;;;;;;;26.83;13.07;;;;;;;-143.84;31.12;45049.06;5031909;28;20436;-68
2022/03/25 01:33:59;;;;;;;14.97;10.20;;;;;;;-143.84;30.75;45064.31;5032140;28;20443;-68
2022/03/25 01:36:27;;;;;;;15.27;10.67;;;;;;;-143.84;31.29;45070.00;5032134;28;20451;-68
2022/03/25 01:38:55;;;;;;;16.50;10.13;;;;;;;-143.84;30.70;45035.75;5032058;28;20436;-68
2022/03/25 01:41:23;;;;;;;15.90;9.47;;;;;;;-143.84;31.11;45043.34;5031828;28;20487;-68
2022/03/25 01:43:54;;;;;;;12.33;8.70;;;;;;;-143.84;31.41;45047.16;5032167;28;20448;-68
2022/03/25 01:46:22;;;;;;;18.67;10.07;;;;;;;-143.84;31.29;45045.25;5032055;28;20455;-68
2022/03/25 01:48:49;;;;;;;17.07;9.60;;;;;;;-143.84;31.61;45054.78;5031504;28;20443;-68
2022/03/25 01:51:18;;;;;;;12.50;9.10;;;;;;;-143.84;31.40;45045.25;5031448;28;21082;-68
2022/03/25 01:53:47;;;;;;;20.00;9.77;;;;;;;-143.84;31.35;45070.00;5031282;28;20438;-68
2022/03/25 01:56:21;;;;;;;13.77;9.60;;;;;;;-143.84;31.88;45056.69;5030952;28;20546;-68
2022/03/25 01:58:49;;;;;;;19.13;9.73;;;;;;;-143.84;31.92;45052.88;5030885;28;20454;-68
2022/03/25 02:01:17;;;;;;;13.70;9.43;;;;;;;-143.84;32.42;45073.81;5031566;28;20478;-68
2022/03/25 02:03:45;;;;;;;14.20;10.30;;;;;;;-143.84;32.31;45056.69;5031602;28;20535;-68
2022/03/25 02:06:12;;;;;;;16.17;10.00;;;;;;;-143.84;31.71;45056.69;5031581;28;20538;-68
2022/03/25 02:08:40;;;;;;;23.00;9.60;;;;;;;-143.84;32.29;45077.63;5031704;28;20446;-68
2022/03/25 02:11:08;;;;;;;18.57;9.57;;;;;;;-143.84;32.46;45087.16;5031312;28;20453;-68
2022/03/25 02:13:38;;;;;;;33.67;9.90;;;;;;;-143.84;32.29;45028.13;5031045;28;20448;-68
2022/03/25 02:16:06;;;;;;;16.97;9.83;;;;;;;-143.84;32.59;45073.81;5031319;28;20950;-68
2022/03/25 02:18:33;;;;;;;14.00;9.60;;;;;;;-143.84;32.77;45079.53;5030912;28;20930;-70
2022/03/25 02:21:00;;;;;;;15.07;10.00;;;;;;;-143.84;32.36;45071.91;5030958;28;20485;-70
2022/03/25 02:23:29;;;;;;;13.17;8.60;;;;;;;-143.84;32.57;45054.78;5031252;28;20443;-70
2022/03/25 02:25:56;;;;;;;22.10;10.37;;;;;;;-143.84;32.94;45056.69;5030744;28;20443;-70
2022/03/25 02:28:24;;;;;;;15.80;9.47;;;;;;;-143.84;32.80;45060.50;5031085;28;20537;-70
2022/03/25 02:30:51;;;;;;;17.47;9.93;;;;;;;-143.84;32.77;45068.13;5030951;28;20439;-70
2022/03/25 02:33:19;;;;;;;23.80;10.73;;;;;;;-143.84;33.19;45081.44;5030810;28;20445;-70
2022/03/25 02:35:47;;;;;;;21.13;9.40;;;;;;;-143.84;33.45;45062.41;5030992;28;20454;-70
2022/03/25 02:38:17;;;;;;;17.47;9.90;;;;;;;-143.84;33.63;45050.97;5030717;28;20503;-70
2022/03/25 02:40:46;;;;;;;16.43;9.93;;;;;;;-143.84;33.43;45050.97;5030912;28;20483;-70
2022/03/25 02:43:14;;;;;;;18.33;9.50;;;;;;;-143.84;33.33;45050.97;5031004;28;20504;-70
2022/03/25 02:45:42;;;;;;;13.10;9.80;;;;;;;-143.84;33.50;45026.22;5030834;28;20538;-70
2022/03/25 02:48:11;;;;;;;15.70;8.97;;;;;;;-143.84;33.75;45052.88;5030774;28;20510;-70
2022/03/25 02:50:38;;;;;;;15.03;10.00;;;;;;;-143.84;33.72;45071.91;5031351;28;20521;-70
2022/03/25 02:53:06;;;;;;;15.50;10.57;;;;;;;-143.84;33.49;45056.69;5031194;28;20443;-70
2022/03/25 02:55:33;;;;;;;14.27;10.20;;;;;;;-143.84;33.74;45075.72;5030777;28;20490;-70
2022/03/25 02:58:01;;;;;;;11.67;8.67;;;;;;;-143.84;33.71;45071.91;5031179;28;20841;-70
2022/03/25 03:00:29;;;;;;;20.03;11.20;;;;;;;-143.84;34.02;45033.84;5030816;28;20478;-70
2022/03/25 03:03:00;;;;;;;16.83;9.83;;;;;;;-143.84;33.99;45064.31;5030774;28;20430;-70
2022/03/25 03:05:27;;;;;;;15.87;9.43;;;;;;;-143.84;33.78;45066.22;5030782;28;20442;-70
2022/03/25 03:07:55;;;;;;;18.50;10.73;;;;;;;-143.84;33.82;45050.97;5030857;28;20517;-70
2022/03/25 03:10:23;;;;;;;32.90;10.60;;;;;;;-143.84;34.20;45054.78;5030377;28;20891;-70
2022/03/25 03:12:50;;;;;;;19.40;10.77;;;;;;;-143.84;34.18;45047.16;5030665;28;20438;-70
2022/03/25 03:15:19;;;;;;;15.47;10.20;;;;;;;-143.84;34.52;45047.16;5030745;28;20516;-70
2022/03/25 03:17:46;;;;;;;15.80;10.17;;;;;;;-143.84;34.50;45066.22;5030700;28;20521;-70
2022/03/25 03:20:15;;;;;;;19.17;9.00;;;;;;;-143.84;34.61;45081.44;5030162;28;20482;-70
2022/03/25 03:22:42;;;;;;;17.43;9.67;;;;;;;-143.84;34.51;45066.22;5030123;28;20926;-70
2022/03/25 03:25:10;;;;;;;15.23;10.47;;;;;;;-143.84;34.91;45071.91;5030032;28;20452;-70
2022/03/25 03:27:38;;;;;;;18.50;9.80;;;;;;;-143.84;34.71;45058.59;5029764;28;20445;-70
2022/03/25 03:30:07;;;;;;;16.03;10.03;;;;;;;-143.84;34.81;45050.97;5029957;28;20441;-70
2022/03/25 03:32:35;;;;;;;17.60;11.00;;;;;;;-143.84;35.22;45071.91;5029937;28;20508;-70
2022/03/25 03:35:04;;;;;;;14.83;10.90;;;;;;;-143.84;35.23;45081.44;5029868;28;21288;-70
2022/03/25 03:37:32;;;;;;;16.53;10.83;;;;;;;-143.84;35.50;45075.72;5029612;28;20446;-70
2022/03/25 03:39:59;;;;;;;26.33;10.60;;;;;;;-143.84;35.11;45073.81;5029513;28;20438;-70
2022/03/25 03:42:26;;;;;;;12.80;9.23;;;;;;;-143.84;35.38;45064.31;5029277;28;20479;-70
2022/03/25 03:44:53;;;;;;;17.53;10.53;;;;;;;-143.84;35.13;45070.00;5029414;28;20451;-70
2022/03/25 03:47:21;;;;;;;12.03;9.20;;;;;;;-143.84;35.31;45052.88;5029463;28;20937;-70
2022/03/25 03:49:50;;;;;;;27.00;11.20;;;;;;;-143.84;35.02;45083.34;5029276;28;20435;-70
2022/03/25 03:52:17;;;;;;;19.80;10.40;;;;;;;-143.84;35.01;45090.97;5029524;28;20529;-70
2022/03/25 03:54:44;;;;;;;14.80;10.20;;;;;;;-143.84;35.30;45068.13;5029443;28;20509;-70
2022/03/25 03:57:11;;;;;;;16.13;10.17;;;;;;;-143.84;34.85;45075.72;5030146;28;20524;-69
2022/03/25 03:59:38;;;;;;;22.03;11.00;;;;;;;-143.84;35.03;45054.78;5029812;28;20451;-70
2022/03/25 04:02:07;;;;;;;21.30;9.70;;;;;;;-143.84;34.79;45071.91;5029670;28;20572;-70
2022/03/25 04:04:35;;;;;;;13.73;10.33;;;;;;;-143.84;34.34;45043.34;5029761;28;20462;-70
2022/03/25 04:07:04;;;;;;;26.17;10.20;;;;;;;-143.84;34.98;45064.31;5029323;28;20450;-70
2022/03/25 04:09:31;;;;;;;18.73;9.70;;;;;;;-143.84;34.66;45054.78;5029482;28;20549;-70
2022/03/25 04:11:59;;;;;;;28.37;10.63;;;;;;;-143.84;34.54;45070.00;5031131;28;20461;-70
2022/03/25 04:14:26;;;;;;;19.03;10.70;;;;;;;-143.84;34.39;45066.22;5048104;28;20469;-68
2022/03/25 04:16:53;;;;;;;15.30;10.77;;;;;;;-143.84;35.13;45024.31;5049228;28;20855;-69
2022/03/25 04:19:20;;;;;;;19.20;9.67;;;;;;;-143.84;34.66;45071.91;5049285;28;20522;-68
2022/03/25 04:21:48;;;;;;;26.70;9.23;;;;;;;-143.84;34.39;45047.16;5040167;28;20477;-68
2022/03/25 04:24:16;;;;;;;15.07;9.20;;;;;;;-143.84;34.66;45077.63;5044645;28;20450;-69
2022/03/25 04:26:43;;;;;;;14.80;9.80;;;;;;;-143.84;34.65;45050.97;5039049;28;20512;-69
2022/03/25 04:29:10;;;;;;;22.93;9.73;;;;;;;-143.84;34.61;45064.31;5035003;28;20787;-69
2022/03/25 04:31:37;;;;;;;18.83;10.10;;;;;;;-143.84;34.85;45068.13;5040646;28;20969;-70
2022/03/25 04:34:05;;;;;;;13.70;9.63;;;;;;;-143.84;34.78;45070.00;5048142;28;20507;-70
2022/03/25 04:36:32;;;;;;;20.93;11.00;;;;;;;-143.84;34.65;45071.91;5042130;28;20452;-70
2022/03/25 04:38:59;;;;;;;16.50;9.33;;;;;;;-143.84;34.48;45064.31;5044050;28;20449;-71
2022/03/25 04:41:27;;;;;;;17.73;9.17;;;;;;;-143.84;34.31;45071.91;5042908;28;20524;-70
2022/03/25 04:43:55;;;;;;;15.70;10.60;;;;;;;-143.84;35.12;45056.69;5043956;28;20794;-69
2022/03/25 04:46:22;;;;;;;13.80;9.53;;;;;;;-143.84;34.46;45079.53;5044722;28;20461;-70
2022/03/25 04:48:49;;;;;;;18.20;9.70;;;;;;;-143.84;34.28;45071.91;5042379;28;21007;-70
2022/03/25 04:51:16;;;;;;;23.13;10.40;;;;;;;-143.84;34.76;45058.59;5042560;28;20446;-69
2022/03/25 04:53:43;;;;;;;16.63;9.93;;;;;;;-143.84;34.13;45050.97;5052419;28;20441;-69
2022/03/25 04:56:10;;;;;;;25.27;10.40;;;;;;;-143.84;34.09;45052.88;5052188;28;20915;-68
2022/03/25 04:58:39;;;;;;;21.23;11.03;;;;;;;-143.84;34.02;45050.97;5052369;28;20439;-69
2022/03/25 05:01:06;;;;;;;22.03;10.57;;;;;;;-143.84;34.16;45049.06;5051117;28;20519;-69
2022/03/25 05:03:33;;;;;;;16.83;11.00;;;;;;;-143.84;33.92;45085.25;5034947;28;20460;-69
2022/03/25 05:06:00;;;;;;;13.30;10.03;;;;;;;-143.84;33.94;45033.84;5032356;28;20452;-69
2022/03/25 05:08:27;;;;;;;14.83;10.30;;;;;;;-143.84;33.75;45031.94;5031968;28;20577;-69
2022/03/25 05:10:54;;;;;;;20.00;10.03;;;;;;;-143.84;33.35;45041.44;5032335;28;21164;-69
2022/03/25 05:13:21;;;;;;;24.00;11.47;;;;;;;-143.84;33.05;45045.25;5031775;28;20506;-69
2022/03/25 05:15:50;;;;;;;33.43;11.10;;;;;;;-143.84;32.94;45056.69;5031879;28;20489;-69
2022/03/25 05:18:17;;;;;;;17.80;10.50;;;;;;;-143.84;32.83;45028.13;5031582;28;20947;-69
2022/03/25 05:20:44;;;;;;;17.80;10.70;;;;;;;-143.84;33.17;45056.69;5032084;28;20445;-70
2022/03/25 05:23:12;;;;;;;24.23;10.30;;;;;;;-143.84;33.43;45056.69;5031635;28;20474;-69
2022/03/25 05:25:39;;;;;;;17.93;11.00;;;;;;;-143.84;33.57;45030.03;5031875;28;20445;-69
2022/03/25 05:28:07;;;;;;;17.03;10.97;;;;;;;-143.84;33.41;45062.41;5031567;28;20444;-69
2022/03/25 05:30:35;;;;;;;21.10;11.07;;;;;;;-143.84;33.83;45056.69;5031430;28;20437;-69
2022/03/25 05:33:03;;;;;;;15.47;9.93;;;;;;;-143.84;33.80;45047.16;5030638;28;20448;-69
2022/03/25 05:35:32;;;;;;;29.83;9.90;;;;;;;-143.84;33.75;45047.16;5031630;28;20440;-69
2022/03/25 05:37:59;;;;;;;22.47;10.00;;;;;;;-143.84;33.25;45030.03;5031835;28;20440;-69
2022/03/25 05:40:27;;;;;;;20.67;10.73;;;;;;;-143.84;32.63;45026.22;5031509;28;20519;-69
2022/03/25 05:42:55;;;;;;;18.23;11.43;;;;;;;-143.84;32.92;45031.94;5031148;28;21179;-69
2022/03/25 05:45:24;;;;;;;19.97;11.33;;;;;;;-143.84;32.50;45022.41;5030962;28;20445;-69
2022/03/25 05:47:51;;;;;;;19.80;10.70;;;;;;;-143.84;32.51;45016.69;5031294;28;20453;-69
2022/03/25 05:50:21;;;;;;;15.47;9.87;;;;;;;-143.84;32.29;45039.53;5031158;28;20445;-69
2022/03/25 05:52:48;;;;;;;25.97;10.70;;;;;;;-143.84;32.03;45037.66;5033724;28;20515;-69
2022/03/25 05:55:16;;;;;;;34.47;11.77;;;;;;;-143.84;32.18;45018.59;5050840;28;21002;-70
2022/03/25 05:57:44;;;;;;;15.33;10.53;;;;;;;-143.84;31.89;45035.75;5050704;28;20449;-70
2022/03/25 06:00:14;;;;;;;16.10;10.50;;;;;;;-143.84;31.64;45047.16;5050989;28;20449;-70
2022/03/25 06:02:42;;;;;;;27.30;10.77;;;;;;;-143.84;31.28;45018.59;5050600;28;20565;-70
2022/03/25 06:05:10;;;;;;;14.00;10.20;;;;;;;-143.84;31.16;45026.22;5050493;28;21065;-70
2022/03/25 06:07:39;;;;;;;18.10;11.10;;;;;;;-143.84;30.98;45050.97;5050410;28;21013;-70
2022/03/25 06:10:08;;;;;;;32.37;10.53;;;;;;;-143.84;30.42;45028.13;5050494;28;20457;-70
2022/03/25 06:12:36;;;;;;;16.27;10.80;;;;;;;-143.84;30.12;44984.31;5050934;28;20466;-70
2022/03/25 06:15:04;;;;;;;16.67;10.70;;;;;;;-143.84;30.29;45012.88;5050496;28;20454;-70
2022/03/25 06:17:32;;;;;;;17.20;9.70;;;;;;;-143.84;30.07;45007.19;5050796;28;20475;-67
2022/03/25 06:19:59;;;;;;;19.83;11.57;;;;;;;-143.84;30.00;45022.41;5047488;28;20461;-67
2022/03/25 06:22:27;;;;;;;23.00;10.37;;;;;;;-143.84;29.45;44991.94;5050531;28;21009;-68
2022/03/25 06:24:56;;;;;;;14.23;10.20;;;;;;;-143.84;29.82;45028.13;5050310;28;20453;-68
2022/03/25 06:27:23;;;;;;;18.20;9.43;;;;;;;-143.84;29.54;45018.59;5050374;28;20453;-68
2022/03/25 06:29:50;;;;;;;16.13;9.87;;;;;;;-143.84;29.52;45016.69;5050184;28;20445;-68
2022/03/25 06:32:17;;;;;;;25.17;11.30;;;;;;;-143.84;29.22;44990.03;5050554;28;20499;-68
2022/03/25 06:34:44;;;;;;;17.73;11.97;;;;;;;-143.84;29.67;45009.09;5050320;28;20446;-68
2022/03/25 06:37:11;;;;;;;14.93;10.80;;;;;;;-143.84;28.86;45026.22;5050027;28;21098;-68
2022/03/25 06:39:38;;;;;;;15.43;10.60;;;;;;;-143.84;28.73;45010.97;5050119;28;20507;-68
2022/03/25 06:42:08;;;;;;;17.10;11.80;;;;;;;-143.84;28.79;44980.53;5049881;28;20477;-68
2022/03/25 06:44:35;;;;;;;17.77;10.17;;;;;;;-143.84;28.58;44993.84;5049388;28;20442;-68
2022/03/25 06:47:02;;;;;;;15.63;10.10;;;;;;;-143.84;29.11;44988.13;5049902;28;20507;-68
2022/03/25 06:49:30;;;;;;;19.07;10.37;;;;;;;-143.84;28.55;45001.47;5050049;28;20452;-68
2022/03/25 06:51:57;;;;;;;12.80;10.20;;;;;;;-143.84;28.79;44988.13;5049989;28;20842;-68
2022/03/25 06:54:25;;;;;;;15.47;11.10;;;;;;;-143.84;28.50;44984.31;5049761;28;20498;-68
2022/03/25 06:56:53;;;;;;;12.40;9.00;;;;;;;-143.84;28.59;44974.81;5049521;28;20624;-68
2022/03/25 06:59:23;;;;;;;25.50;9.80;;;;;;;-143.84;28.92;44984.31;5049869;28;20433;-68
2022/03/25 07:01:51;;;;;;;18.97;9.97;;;;;;;-143.84;28.73;44969.09;5049657;28;20481;-68
2022/03/25 07:04:18;;;;;;;20.57;8.97;;;;;;;-143.84;29.15;44978.63;5049646;28;20438;-68
2022/03/25 07:06:50;;;;;;;11.60;9.13;;;;;;;-143.84;28.70;44982.41;5050016;28;20927;-68
2022/03/25 07:09:17;;;;;;;17.30;9.07;;;;;;;-143.84;29.11;44991.94;5049365;28;20449;-68
2022/03/25 07:11:45;;;;;;;15.30;9.70;;;;;;;-143.84;29.11;44997.66;5049668;28;20834;-68
2022/03/25 07:14:12;;;;;;;14.87;8.80;;;;;;;-143.84;29.16;44990.03;5049758;28;20869;-68
2022/03/25 07:16:42;;;;;;;14.07;8.27;;;;;;;-143.84;28.58;44967.19;5049428;28;20511;-68
2022/03/25 07:19:10;;;;;;;13.43;10.13;;;;;;;-143.84;28.99;44984.31;5049460;28;20450;-68
2022/03/25 07:21:38;;;;;;;21.07;8.50;;;;;;;-143.84;29.24;44993.84;5049408;28;20473;-68
2022/03/25 07:24:05;;;;;;;13.03;9.60;;;;;;;-143.84;28.68;44967.19;5049261;28;20539;-68
2022/03/25 07:26:33;;;;;;;12.67;9.03;;;;;;;-143.84;28.66;44976.72;5048950;28;20445;-68
2022/03/25 07:29:00;;;;;;;17.67;9.40;;;;;;;-143.84;28.87;44984.31;5049113;28;20785;-68
2022/03/25 07:31:28;;;;;;;11.80;9.30;;;;;;;-143.84;28.60;44978.63;5049162;28;20445;-68
2022/03/25 07:33:57;;;;;;;11.90;8.50;;;;;;;-143.84;28.63;44978.63;5049159;28;20449;-68
2022/03/25 07:36:24;;;;;;;13.73;8.47;;;;;;;-143.84;29.27;44995.75;5049232;28;20446;-68
2022/03/25 07:38:52;;;;;;;11.73;8.73;;;;;;;-143.84;28.84;45003.38;5049185;28;20863;-68
2022/03/25 07:41:19;;;;;;;16.30;9.30;;;;;;;-143.84;29.01;44984.31;5048805;28;20845;-68
2022/03/25 07:43:46;;;;;;;20.53;9.80;;;;;;;-143.84;28.99;44990.03;5048692;28;20953;-68
2022/03/25 07:46:14;;;;;;;17.77;9.30;;;;;;;-143.84;29.15;44993.84;5049102;28;20451;-68
2022/03/25 07:48:41;;;;;;;17.00;9.17;;;;;;;-143.84;28.84;44982.41;5049100;28;20433;-68
2022/03/25 07:51:10;;;;;;;12.53;9.27;;;;;;;-143.84;28.62;44963.38;5049171;28;20499;-68
2022/03/25 07:53:37;;;;;;;14.40;9.53;;;;;;;-143.84;28.86;44999.56;5048842;28;20439;-69
2022/03/25 07:56:05;;;;;;;23.70;9.23;;;;;;;-143.84;28.97;44963.38;5048108;28;20486;-68
2022/03/25 07:58:32;;;;;;;13.30;8.20;;;;;;;-143.84;28.50;44971.00;5048375;28;20449;-68
2022/03/25 08:01:00;;;;;;;17.50;9.80;;;;;;;-143.84;28.99;44990.03;5048897;28;20515;-68
2022/03/25 08:03:27;;;;;;;13.23;8.80;;;;;;;-143.84;29.16;44993.84;5048582;28;20476;-68
2022/03/25 08:05:55;;;;;;;12.63;9.17;;;;;;;-143.84;28.87;44965.28;5048679;28;20454;-68
2022/03/25 08:08:23;;;;;;;13.70;8.83;;;;;;;-143.84;28.78;44974.81;5048706;28;20448;-68
2022/03/25 08:10:55;;;;;;;13.20;9.10;;;;;;;-143.84;29.07;44993.84;5048863;28;20461;-68
2022/03/25 08:13:22;;;;;;;15.47;8.70;;;;;;;-143.84;29.32;44978.63;5049297;28;20451;-68
2022/03/25 08:15:49;;;;;;;16.23;8.90;;;;;;;-143.84;28.84;44974.81;5048905;28;20454;-68
2022/03/25 08:18:17;;;;;;;15.20;8.30;;;;;;;-143.84;28.33;44974.81;5049040;28;20443;-68
2022/03/25 08:20:46;;;;;;;9.93;8.70;;;;;;;-143.84;28.30;44965.28;5048687;28;20528;-68
2022/03/25 08:27:48;;;;;;;15.23;9.23;;;;;;;-143.84;28.87;44955.75;5048850;28;21394;-68
2022/03/25 08:28:48;;;;;;;13.23;8.43;;;;;;;-143.84;27.39;44967.19;5048703;28;20423;-68
2022/03/25 08:31:15;;;;;;;12.37;9.00;;;;;;;-143.84;28.12;44969.09;5048491;28;20448;-68
2022/03/25 08:33:43;;;;;;;18.53;8.80;;;;;;;-143.84;28.10;44969.09;5048635;28;20509;-68
2022/03/25 08:36:10;;;;;;;9.80;8.53;;;;;;;-143.84;27.97;44969.09;5048638;28;20445;-68
2022/03/25 08:38:37;;;;;;;14.60;8.37;;;;;;;-143.84;28.09;44993.84;5048466;28;20439;-68
2022/03/25 08:41:06;;;;;;;16.80;8.10;;;;;;;-143.84;27.93;44988.13;5030894;28;20972;-68
2022/03/25 08:43:33;;;;;;;16.90;8.73;;;;;;;-143.84;28.15;44976.72;5048468;28;20884;-68
2022/03/25 08:46:01;;;;;;;13.23;9.60;;;;;;;-143.84;28.13;44969.09;5048352;28;20442;-68
2022/03/25 08:48:29;;;;;;;10.00;8.20;;;;;;;-143.84;28.50;44953.88;5048615;28;20811;-68
2022/03/25 08:50:56;;;;;;;14.53;8.87;;;;;;;-143.84;27.84;44969.09;5048644;28;20438;-68
2022/03/25 08:53:23;;;;;;;15.23;9.90;;;;;;;-143.84;28.27;44963.38;5048537;28;20445;-68
2022/03/25 08:55:50;;;;;;;13.00;8.93;;;;;;;-143.84;27.89;44988.13;5048288;28;20483;-68
2022/03/25 08:58:19;;;;;;;15.80;8.40;;;;;;;-143.84;28.50;44950.06;5048490;28;20521;-68
2022/03/25 09:00:46;;;;;;;12.93;8.93;;;;;;;-143.84;27.87;44974.81;5048641;28;20451;-68
2022/03/25 09:03:14;;;;;;;19.03;8.90;;;;;;;-143.84;28.09;44961.47;5048348;28;20900;-68
2022/03/25 09:05:41;;;;;;;11.00;8.00;;;;;;;-143.84;28.18;44965.28;5048420;28;20451;-68
2022/03/25 09:08:08;;;;;;;12.50;8.47;;;;;;;-143.84;28.06;44959.56;5050521;28;20447;-68
2022/03/25 09:10:36;;;;;;;15.30;8.20;;;;;;;-143.84;28.50;44959.56;5051563;28;20460;-68
2022/03/25 09:13:03;;;;;;;11.23;8.73;;;;;;;-143.84;26.52;44965.28;5051861;28;20450;-68
2022/03/25 09:15:32;;;;;;;12.67;8.67;;;;;;;-143.84;27.03;44965.28;5051822;28;20444;-68
2022/03/25 09:17:59;;;;;;;14.07;8.37;;;;;;;-143.84;27.22;44957.66;5051955;28;20446;-68
2022/03/25 09:20:26;;;;;;;17.17;8.40;;;;;;;-143.84;27.59;44955.75;5051756;28;20452;-68
2022/03/25 09:22:54;;;;;;;12.17;8.70;;;;;;;-143.84;27.47;44957.66;5051616;28;20493;-68
2022/03/25 09:25:23;;;;;;;15.53;8.47;;;;;;;-143.84;27.22;44934.81;5051504;28;20449;-68
2022/03/25 09:27:51;;;;;;;14.43;8.57;;;;;;;-143.84;27.50;44969.09;5051526;28;20434;-68
2022/03/25 09:30:18;;;;;;;16.87;8.70;;;;;;;-143.84;27.40;44953.88;5051665;28;20449;-68
2022/03/25 09:32:47;;;;;;;22.40;8.93;;;;;;;-143.84;27.26;44961.47;5051397;28;20442;-68
2022/03/25 09:35:14;;;;;;;15.63;9.50;;;;;;;-143.84;26.58;44953.88;5051235;28;20453;-68
2022/03/25 09:37:44;;;;;;;16.40;9.50;;;;;;;-143.84;26.48;44950.06;5051417;28;20434;-68
2022/03/25 09:40:15;;;;;;;19.13;9.27;;;;;;;-143.84;26.63;44967.19;5051535;28;20462;-68
2022/03/25 09:42:42;;;;;;;17.90;9.50;;;;;;;-143.84;26.60;44967.19;5051185;28;20477;-68
2022/03/25 09:45:12;;;;;;;13.00;9.00;;;;;;;-143.84;27.07;44932.91;5051161;28;20446;-68
2022/03/25 09:47:40;;;;;;;17.60;9.57;;;;;;;-143.84;26.13;44950.06;5051151;28;20931;-68
2022/03/25 09:50:15;;;;;;;9.43;8.33;;;;;;;-143.84;26.97;44940.53;5051106;28;20974;-68
2022/03/25 09:52:43;;;;;;;13.93;8.03;;;;;;;-143.84;27.32;44951.97;5050819;28;20458;-68
2022/03/25 09:55:11;;;;;;;14.77;10.37;;;;;;;-143.84;26.93;44953.88;5050335;28;20564;-68
2022/03/25 09:57:38;;;;;;;12.77;8.57;;;;;;;-143.84;26.43;44953.88;5050962;28;20433;-68
2022/03/25 10:00:08;;;;;;;11.20;8.90;;;;;;;-143.84;26.71;44957.66;5050918;28;20499;-68
2022/03/25 10:02:35;;;;;;;17.87;9.33;;;;;;;-143.84;27.48;44953.88;5050915;28;20485;-68
2022/03/25 10:05:16;;;;;;;13.30;9.20;;;;;;;-143.84;26.22;44965.28;5051162;28;20516;-68
2022/03/25 10:07:46;;;;;;;12.37;9.47;;;;;;;-143.84;26.19;44984.31;5050415;28;20536;-68
2022/03/25 10:10:14;;;;;;;15.83;9.43;;;;;;;-143.84;27.29;44948.16;5050522;28;20961;-68
2022/03/25 10:12:44;;;;;;;15.23;8.90;;;;;;;-143.84;26.37;44946.25;5050568;28;20948;-68
2022/03/25 10:15:14;;;;;;;12.37;8.20;;;;;;;-143.84;27.63;44961.47;5050952;28;21208;-68
2022/03/25 10:18:03;;;;;;;13.07;8.67;;;;;;;-143.84;27.44;44978.63;5050591;28;20442;-68
2022/03/25 10:20:33;;;;;;;18.03;9.37;;;;;;;-143.84;26.80;44934.81;5044255;28;20964;-68
2022/03/25 10:23:09;;;;;;;14.33;9.70;;;;;;;-143.84;26.88;44972.91;5050506;28;20894;-68
2022/03/25 10:25:45;;;;;;;11.80;9.83;;;;;;;-143.84;26.85;44982.41;5050421;28;20820;-68
2022/03/25 10:28:25;;;;;;;17.23;10.33;;;;;;;-143.84;27.17;44948.16;5050372;28;20537;-68
2022/03/25 10:30:54;;;;;;;19.07;8.63;;;;;;;-143.84;27.64;44951.97;5050216;28;20509;-68
2022/03/25 10:33:26;;;;;;;23.53;11.20;;;;;;;-143.84;28.10;44957.66;5050546;28;20434;-68
2022/03/25 10:35:58;;;;;;;18.73;9.83;;;;;;;-143.84;27.20;44972.91;5050001;28;20453;-68
2022/03/25 10:38:27;;;;;;;11.87;9.50;;;;;;;-143.84;27.85;44932.91;5050257;28;20440;-68
2022/03/25 10:40:56;;;;;;;15.93;9.93;;;;;;;-143.84;27.83;44967.19;5049950;28;20448;-68
2022/03/25 10:43:24;;;;;;;16.93;9.40;;;;;;;-143.84;26.96;44969.09;5050517;28;20469;-68
2022/03/25 10:45:51;;;;;;;24.03;8.93;;;;;;;-143.84;27.57;44971.00;5050179;28;20437;-68
2022/03/25 10:48:20;;;;;;;21.77;8.90;;;;;;;-143.84;27.78;44982.41;5050001;28;20842;-68
2022/03/25 10:51:04;;;;;;;17.47;10.53;;;;;;;-143.84;27.68;44963.38;5049854;28;20872;-68
2022/03/25 10:53:34;;;;;;;21.43;9.93;;;;;;;-143.84;27.53;44961.47;5049862;28;20447;-68
2022/03/25 10:56:03;;;;;;;14.03;8.90;;;;;;;-143.84;27.82;44993.84;5049528;28;20484;-68
2022/03/25 10:58:30;;;;;;;13.30;9.50;;;;;;;-143.84;27.72;44961.47;5049609;28;20447;-68
2022/03/25 11:00:59;;;;;;;12.37;9.20;;;;;;;-143.84;28.50;44967.19;5049835;28;20443;-68
2022/03/25 11:03:27;;;;;;;19.37;9.10;;;;;;;-143.84;27.85;44955.75;5049797;28;20913;-68
2022/03/25 11:05:54;;;;;;;12.63;9.33;;;;;;;-143.84;28.19;44982.41;5049435;28;20504;-68
2022/03/25 11:08:23;;;;;;;14.30;9.10;;;;;;;-143.84;29.41;44955.75;5049829;28;20459;-68
2022/03/25 11:10:52;;;;;;;14.90;9.33;;;;;;;-143.84;28.42;44974.81;5049863;28;20468;-68
2022/03/25 11:13:19;;;;;;;21.97;9.10;;;;;;;-143.84;28.59;44978.63;5049763;28;20431;-68